Time;durP1;ratioP1;P1;durP2;ratioP2;P2;SDS_P1;SDS_P2;PMS_P1;PMS_P2;Temp;Humidity;BMP_temperature;BMP_pressure;BME280_temperature;BME280_humidity;BME280_pressure;Samples;Min_cycle;Max_cycle;Signal;HPM_P1;HPM_P2
2022/11/02 00:00:24;;;;;;;4.88;1.77;;;;;;;-142.75;100.00;77084.09;5067803;28;20028;-66
2022/11/02 00:02:50;;;;;;;8.07;1.30;;;;;;;-142.75;100.00;77074.25;5069004;28;20399;-65
2022/11/02 00:05:15;;;;;;;6.25;1.65;;;;;;;-142.75;100.00;77074.25;5069736;28;20025;-67
2022/11/02 00:07:41;;;;;;;5.03;1.17;;;;;;;-142.75;100.00;77078.19;5069295;28;20020;-66
2022/11/02 00:10:08;;;;;;;10.02;1.50;;;;;;;-142.75;100.00;77074.25;5051757;28;20073;-67
2022/11/02 00:12:33;;;;;;;8.32;1.27;;;;;;;-142.75;100.00;77097.88;5069617;28;20039;-66
2022/11/02 00:14:58;;;;;;;5.32;1.67;;;;;;;-142.75;100.00;77080.16;5069846;28;20021;-67
2022/11/02 00:17:24;;;;;;;8.77;1.50;;;;;;;-142.75;100.00;77068.34;5069232;28;20074;-67
2022/11/02 00:19:50;;;;;;;6.70;1.67;;;;;;;-142.75;100.00;77062.44;5051471;28;20032;-66
2022/11/02 00:22:15;;;;;;;12.43;1.45;;;;;;;-142.75;100.00;77068.34;5069744;28;20016;-67
2022/11/02 00:24:41;;;;;;;7.93;1.77;;;;;;;-142.75;100.00;77121.50;5069444;28;20131;-66
2022/11/02 00:27:07;;;;;;;8.63;1.20;;;;;;;-142.75;100.00;77127.41;5069305;28;20035;-66
2022/11/02 00:29:33;;;;;;;11.93;1.70;;;;;;;-142.75;100.00;77156.94;5069381;28;20032;-66
2022/11/02 00:31:59;;;;;;;6.78;0.63;;;;;;;-142.75;100.00;77176.63;5069530;28;20028;-67
2022/11/02 00:34:24;;;;;;;6.95;0.70;;;;;;;-142.75;100.00;77176.63;5069454;28;20497;-67
2022/11/02 00:36:49;;;;;;;2.83;0.82;;;;;;;-142.75;100.00;77204.19;5068937;28;20060;-66
2022/11/02 00:39:15;;;;;;;1.40;0.40;;;;;;;-142.75;100.00;77223.88;5068147;28;20024;-67
2022/11/02 00:41:40;;;;;;;2.60;0.40;;;;;;;-142.75;100.00;77235.69;5068467;28;20103;-66
2022/11/02 00:44:05;;;;;;;4.78;0.50;;;;;;;-142.75;100.00;77263.25;5069328;28;20016;-67
2022/11/02 00:46:31;;;;;;;4.53;0.43;;;;;;;-142.75;100.00;77247.50;5069088;28;20024;-66
2022/11/02 00:48:56;;;;;;;5.90;0.57;;;;;;;-142.75;100.00;77243.56;5069169;28;20024;-67
2022/11/02 00:51:21;;;;;;;5.88;0.55;;;;;;;-142.75;100.00;77263.25;5069280;28;20056;-68
2022/11/02 00:53:47;;;;;;;1.50;0.40;;;;;;;-142.75;100.00;77259.31;5069807;28;20111;-67
2022/11/02 00:56:12;;;;;;;4.97;0.65;;;;;;;-142.75;100.00;77255.38;5068824;28;20016;-66
2022/11/02 00:58:37;;;;;;;3.78;0.60;;;;;;;-142.75;100.00;77257.34;5072748;28;20057;-66
2022/11/02 01:01:04;;;;;;;5.72;0.73;;;;;;;-142.75;100.00;77245.53;5073437;28;20154;-66
2022/11/02 01:03:29;;;;;;;12.23;1.45;;;;;;;-142.75;100.00;77267.19;5073204;28;20033;-66
2022/11/02 01:05:54;;;;;;;7.32;0.68;;;;;;;-142.75;100.00;77231.75;5074710;28;20481;-65
2022/11/02 01:08:20;;;;;;;8.52;0.70;;;;;;;-142.75;100.00;77251.44;5093010;28;20094;-67
2022/11/02 01:10:45;;;;;;;4.45;0.82;;;;;;;-142.75;100.00;77257.34;5093121;28;20020;-66
2022/11/02 01:13:10;;;;;;;5.47;0.57;;;;;;;-142.75;100.00;77255.38;5093117;28;20490;-67
2022/11/02 01:15:36;;;;;;;4.95;0.47;;;;;;;-142.75;100.00;77267.19;5093134;28;20119;-67
2022/11/02 01:18:01;;;;;;;1.88;0.75;;;;;;;-142.75;100.00;77255.38;5092696;28;20074;-67
2022/11/02 01:20:26;;;;;;;4.85;0.63;;;;;;;-142.75;100.00;77267.19;5092924;28;20455;-67
2022/11/02 01:22:52;;;;;;;9.10;0.57;;;;;;;-142.75;100.00;77271.13;5093209;28;20103;-66
2022/11/02 01:25:17;;;;;;;7.32;0.80;;;;;;;-142.75;100.00;77259.31;5092924;28;20024;-67
2022/11/02 01:27:42;;;;;;;5.53;1.15;;;;;;;-142.75;100.00;77271.13;5074273;28;20401;-67
2022/11/02 01:30:08;;;;;;;5.82;1.08;;;;;;;-142.75;100.00;77288.84;5092912;28;20024;-67
2022/11/02 01:32:33;;;;;;;8.80;0.95;;;;;;;-142.75;100.00;77286.88;5092668;28;20539;-66
2022/11/02 01:34:59;;;;;;;5.07;0.73;;;;;;;-142.75;100.00;77286.88;5092776;28;20539;-67
2022/11/02 01:37:24;;;;;;;7.80;0.85;;;;;;;-142.75;100.00;77282.94;5074223;28;20050;-67
2022/11/02 01:39:49;;;;;;;4.15;0.77;;;;;;;-142.75;100.00;77273.09;5075383;28;20028;-66
2022/11/02 01:42:21;;;;;;;2.00;0.67;;;;;;;-142.75;100.00;77267.19;5072203;28;20028;-66
2022/11/02 01:44:46;;;;;;;9.05;0.70;;;;;;;-142.75;100.00;77269.16;5072448;28;20279;-67
2022/11/02 01:47:30;;;;;;;4.30;0.90;;;;;;;-142.75;100.00;77261.28;5071783;28;20028;-67
2022/11/02 01:50:11;;;;;;;5.35;0.73;;;;;;;-142.75;100.00;77263.25;5072147;28;20397;-67
2022/11/02 01:52:38;;;;;;;4.78;0.95;;;;;;;-142.75;100.00;77255.38;5072613;28;20028;-65
2022/11/02 01:55:15;;;;;;;7.28;0.70;;;;;;;-142.75;100.00;77253.41;5072213;28;20095;-67
2022/11/02 01:57:44;;;;;;;9.88;0.95;;;;;;;-142.75;100.00;77247.50;5071808;28;20032;-67
2022/11/02 02:00:13;;;;;;;1.40;0.30;;;;;;;-142.75;100.00;77231.75;5072087;28;20032;-66
2022/11/02 02:02:43;;;;;;;9.15;0.80;;;;;;;-142.75;100.00;77227.81;5071920;28;20094;-64
2022/11/02 02:05:11;;;;;;;5.63;1.05;;;;;;;-142.75;100.00;77219.94;5071839;28;20032;-67
2022/11/02 02:07:38;;;;;;;9.43;1.17;;;;;;;-142.75;100.00;77200.25;5053721;28;20060;-66
2022/11/02 02:10:05;;;;;;;10.98;1.30;;;;;;;-142.75;100.00;77192.38;5053215;28;20055;-66
2022/11/02 02:12:33;;;;;;;10.10;1.23;;;;;;;-142.75;100.00;77170.72;5053717;28;20063;-67
2022/11/02 02:14:58;;;;;;;12.23;1.10;;;;;;;-142.75;100.00;77164.81;5054172;28;20452;-65
2022/11/02 02:17:42;;;;;;;12.05;1.60;;;;;;;-142.75;100.00;77168.75;5053449;28;20111;-67
2022/11/02 02:20:23;;;;;;;10.80;1.27;;;;;;;-142.75;100.00;77141.19;5071777;28;20095;-66
2022/11/02 02:23:10;;;;;;;8.43;1.52;;;;;;;-142.75;100.00;77129.38;5072182;28;20040;-67
2022/11/02 02:25:57;;;;;;;6.25;1.17;;;;;;;-142.75;100.00;77125.44;5071538;28;20052;-65
2022/11/02 02:28:31;;;;;;;9.57;1.50;;;;;;;-142.75;100.00;77125.44;5053343;28;20032;-66
2022/11/02 02:31:04;;;;;;;8.13;1.25;;;;;;;-142.75;100.00;77129.38;5071586;28;20024;-67
2022/11/02 02:33:39;;;;;;;5.35;1.45;;;;;;;-142.75;100.00;77125.44;5071541;28;20020;-67
2022/11/02 02:36:24;;;;;;;6.65;1.10;;;;;;;-142.75;100.00;77133.31;5071473;28;20083;-67
2022/11/02 02:39:04;;;;;;;6.85;1.10;;;;;;;-142.75;100.00;77141.19;5053226;28;20489;-66
2022/11/02 02:41:39;;;;;;;5.25;0.98;;;;;;;-142.75;100.00;77145.13;5053494;28;20020;-65
2022/11/02 02:44:13;;;;;;;7.97;1.00;;;;;;;-142.75;100.00;77160.88;5071400;28;20544;-67
2022/11/02 02:46:45;;;;;;;8.02;1.20;;;;;;;-142.75;100.00;77153.00;5071070;28;20047;-64
2022/11/02 02:49:17;;;;;;;3.88;1.10;;;;;;;-142.75;100.00;77149.06;5053182;28;20493;-66
2022/11/02 02:51:44;;;;;;;8.38;1.45;;;;;;;-142.75;100.00;77162.84;5053455;28;20028;-65
2022/11/02 02:54:17;;;;;;;9.85;1.35;;;;;;;-142.75;100.00;77145.13;5071286;28;20024;-66
2022/11/02 02:56:56;;;;;;;6.57;1.08;;;;;;;-142.75;100.00;77156.94;5070534;28;20401;-66
2022/11/02 02:59:42;;;;;;;11.43;1.63;;;;;;;-142.75;100.00;77172.69;5070923;28;20020;-67
2022/11/02 03:02:18;;;;;;;7.18;1.38;;;;;;;-142.75;100.00;77158.91;5053036;28;20032;-66
2022/11/02 03:04:43;;;;;;;13.85;1.70;;;;;;;-142.75;100.00;77176.63;5070824;28;20029;-67
2022/11/02 03:07:13;;;;;;;8.40;1.25;;;;;;;-142.75;100.00;77180.56;5070499;28;20051;-65
2022/11/02 03:10:03;;;;;;;14.07;1.40;;;;;;;-142.75;100.00;77172.69;5071010;28;20462;-66
2022/11/02 03:12:46;;;;;;;11.20;1.38;;;;;;;-142.75;100.00;77166.78;5070749;28;20394;-67
2022/11/02 03:15:34;;;;;;;7.85;1.42;;;;;;;-142.75;100.00;77172.69;5053045;28;20569;-66
2022/11/02 03:18:00;;;;;;;13.60;2.47;;;;;;;-142.75;100.00;77170.72;5069792;28;20031;-67
2022/11/02 03:20:47;;;;;;;8.00;1.40;;;;;;;-142.75;100.00;77158.91;5070483;28;20021;-67
2022/11/02 03:23:37;;;;;;;9.82;1.40;;;;;;;-142.75;100.00;77192.38;5070841;28;20783;-67
2022/11/02 03:26:13;;;;;;;11.95;1.23;;;;;;;-142.75;100.00;77151.03;5070161;28;20041;-66
2022/11/02 03:28:48;;;;;;;11.38;1.50;;;;;;;-142.75;100.00;77162.84;5070015;28;20048;-66
2022/11/02 03:31:24;;;;;;;12.55;1.42;;;;;;;-142.75;100.00;77156.94;5070393;28;20024;-67
2022/11/02 03:34:04;;;;;;;9.98;1.70;;;;;;;-142.75;100.00;77137.25;5070343;28;20044;-66
2022/11/02 03:36:39;;;;;;;9.98;1.60;;;;;;;-142.75;100.00;77137.25;5070122;28;20020;-67
2022/11/02 03:39:08;;;;;;;5.63;1.38;;;;;;;-142.75;100.00;77153.00;5070186;28;20394;-68
2022/11/02 03:41:35;;;;;;;12.93;1.80;;;;;;;-142.75;100.00;77156.94;5069997;28;20120;-65
2022/11/02 03:44:07;;;;;;;13.43;1.55;;;;;;;-142.75;100.00;77164.81;5070276;28;20121;-67
2022/11/02 03:46:37;;;;;;;9.32;1.35;;;;;;;-142.75;100.00;77172.69;5069874;28;20103;-67
2022/11/02 03:49:06;;;;;;;10.35;2.00;;;;;;;-142.75;100.00;77166.78;5051972;28;20024;-65
2022/11/02 03:51:35;;;;;;;9.07;1.50;;;;;;;-142.75;100.00;77170.72;5069990;28;20020;-66
2022/11/02 03:54:18;;;;;;;16.15;1.48;;;;;;;-142.75;100.00;77182.53;5069127;28;20028;-66
2022/11/02 03:56:48;;;;;;;10.07;1.48;;;;;;;-142.75;100.00;77172.69;5068151;28;20115;-66
2022/11/02 03:59:13;;;;;;;11.68;1.65;;;;;;;-142.75;100.00;77184.50;5051981;28;20037;-65
2022/11/02 04:01:42;;;;;;;9.57;1.52;;;;;;;-142.75;100.00;77184.50;5051911;28;20051;-66
2022/11/02 04:04:07;;;;;;;15.27;1.88;;;;;;;-142.75;100.00;77200.25;5069696;28;20032;-67
2022/11/02 04:06:33;;;;;;;13.32;1.25;;;;;;;-142.75;100.00;77202.22;5051280;28;20543;-68
2022/11/02 04:08:59;;;;;;;;;;;;;;;-142.75;100.00;77204.19;5052168;28;20024;-68
2022/11/02 04:19:26;;;;;;;11.57;2.08;;;;;;;-142.75;100.00;77221.91;5069641;28;20084;-67
2022/11/02 04:19:37;;;;;;;12.60;2.05;;;;;;;-142.75;100.00;77227.81;5069305;28;20521;-67
2022/11/02 04:27:32;;;;;;;8.98;1.65;;;;;;;-142.75;100.00;77241.59;5069062;28;20039;-67
2022/11/02 04:29:57;;;;;;;7.53;1.25;;;;;;;-142.75;100.00;77247.50;5068900;28;20466;-66
2022/11/02 04:35:07;;;;;;;13.32;2.10;;;;;;;-142.75;100.00;77259.31;5068777;28;20028;-67
2022/11/02 04:40:21;;;;;;;6.40;1.10;;;;;;;-142.75;100.00;77263.25;5069440;28;20099;-67
2022/11/02 04:42:46;;;;;;;13.40;1.35;;;;;;;-142.75;100.00;77273.09;5069443;28;20047;-67
2022/11/02 04:45:12;;;;;;;9.20;1.48;;;;;;;-142.75;100.00;77286.88;5067981;28;20452;-67
2022/11/02 04:47:37;;;;;;;15.48;1.83;;;;;;;-142.75;100.00;77273.09;5068774;28;20025;-67
2022/11/02 04:50:03;;;;;;;10.05;1.63;;;;;;;-142.75;100.00;77279.00;5069350;28;20055;-66
2022/11/02 04:52:28;;;;;;;11.40;1.60;;;;;;;-142.75;100.00;77292.78;5069579;28;20043;-67
2022/11/02 04:54:53;;;;;;;8.52;1.73;;;;;;;-142.75;100.00;77296.72;5069301;28;20111;-66
2022/11/02 04:57:19;;;;;;;17.98;2.17;;;;;;;-142.75;100.00;77300.66;5068863;28;20021;-66
2022/11/02 04:59:44;;;;;;;8.80;1.20;;;;;;;-142.75;100.00;77306.56;5067635;28;20051;-66
2022/11/02 05:02:09;;;;;;;8.55;0.95;;;;;;;-142.75;100.00;77314.44;5068510;28;20454;-66
2022/11/02 05:04:34;;;;;;;7.72;1.70;;;;;;;-142.75;100.00;77316.41;5068265;28;20032;-67
2022/11/02 05:07:00;;;;;;;17.02;2.15;;;;;;;-142.75;100.00;77318.38;5066672;28;20028;-64
2022/11/02 05:09:25;;;;;;;10.93;1.40;;;;;;;-142.75;100.00;77318.38;5068519;28;20074;-67
2022/11/02 05:11:50;;;;;;;7.63;1.13;;;;;;;-142.75;100.00;77318.38;5068479;28;20020;-67
2022/11/02 05:14:16;;;;;;;12.55;1.40;;;;;;;-142.75;100.00;77322.31;5080432;28;20020;-67
2022/11/02 05:16:41;;;;;;;7.93;1.00;;;;;;;-142.75;100.00;77330.19;5070204;28;20028;-66
2022/11/02 05:19:06;;;;;;;9.30;0.98;;;;;;;-142.75;100.00;77324.28;5089671;28;20103;-66
2022/11/02 05:21:31;;;;;;;8.98;1.40;;;;;;;-142.75;100.00;77326.25;5090449;28;20027;-68
2022/11/02 05:23:57;;;;;;;6.07;0.90;;;;;;;-142.75;100.00;77351.84;5089173;28;20024;-67
2022/11/02 05:26:22;;;;;;;11.45;1.60;;;;;;;-142.75;100.00;77353.81;5090206;28;20035;-67
2022/11/02 05:28:49;;;;;;;6.18;0.90;;;;;;;-142.75;100.00;77330.19;5072008;28;20123;-67
2022/11/02 05:31:14;;;;;;;8.30;0.90;;;;;;;-142.75;100.00;77334.13;5090156;28;20081;-67
2022/11/02 05:33:40;;;;;;;6.13;1.10;;;;;;;-142.75;100.00;77336.09;5084397;28;20420;-65
2022/11/02 05:36:05;;;;;;;;;;;;;;;-142.75;100.00;77338.06;5014567;28;20622;-65
2022/11/02 05:38:31;;;;;;;5.95;0.80;;;;;;;-142.75;100.00;77334.13;5020756;28;20245;-65
2022/11/02 05:40:58;;;;;;;7.55;1.30;;;;;;;-142.75;100.00;77334.13;5001617;28;20354;-65
2022/11/02 05:43:24;;;;;;;6.90;1.25;;;;;;;-142.75;100.00;77340.03;5020813;28;20078;-65
2022/11/02 05:45:51;;;;;;;8.20;1.33;;;;;;;-142.75;100.00;77342.00;5016143;28;20078;-66
2022/11/02 05:48:17;;;;;;;4.53;0.80;;;;;;;-142.75;100.00;77353.81;5004528;28;20020;-66
2022/11/02 05:50:42;;;;;;;9.65;1.00;;;;;;;-142.75;100.00;77361.69;5004272;28;20024;-65
2022/11/02 05:53:08;;;;;;;9.55;0.73;;;;;;;-142.75;100.00;77361.69;5006701;28;20330;-66
2022/11/02 05:55:34;;;;;;;5.30;0.52;;;;;;;-142.75;100.00;77379.41;5021628;28;20357;-65
2022/11/02 05:57:59;;;;;;;;;;;;;;;-142.75;100.00;77377.44;5039319;22;20044;-68
2022/11/02 06:00:25;;;;;;;5.30;0.65;;;;;;;-142.75;100.00;77381.38;5020415;28;19916;-68
2022/11/02 06:02:56;;;;;;;11.00;1.38;;;;;;;-142.75;100.00;77385.31;5040359;28;20491;-68
2022/11/02 06:05:22;;;;;;;8.10;1.08;;;;;;;-142.75;100.00;77369.56;5036832;28;20054;-68
2022/11/02 06:07:47;;;;;;;6.53;1.77;;;;;;;-142.75;100.00;77381.38;5026833;28;20458;-67
2022/11/02 06:10:13;;;;;;;8.73;0.73;;;;;;;-142.75;100.00;77389.25;5023628;28;20101;-67
2022/11/02 06:12:39;;;;;;;6.57;0.88;;;;;;;-142.75;100.00;77391.22;5025788;28;20383;-65
2022/11/02 06:15:04;;;;;;;5.30;0.90;;;;;;;-142.75;100.00;77397.13;5024837;28;20375;-66
2022/11/02 06:17:39;;;;;;;12.88;0.90;;;;;;;-142.75;100.00;77399.09;5023863;28;20034;-67
2022/11/02 06:20:06;;;;;;;7.85;0.93;;;;;;;-142.75;100.00;77408.94;5024109;28;20185;-67
2022/11/02 06:22:38;;;;;;;7.35;0.85;;;;;;;-142.75;100.00;77422.72;5024608;28;20020;-67
2022/11/02 06:25:04;;;;;;;13.35;1.15;;;;;;;-142.75;100.00;77434.53;5023549;28;20024;-67
2022/11/02 06:27:29;;;;;;;10.85;1.35;;;;;;;-142.75;100.00;77440.44;5023535;28;20503;-67
2022/11/02 06:29:55;;;;;;;12.50;0.80;;;;;;;-142.75;100.00;77436.50;5016688;28;20086;-69
2022/11/02 06:32:21;;;;;;;9.68;1.00;;;;;;;-142.75;100.00;77430.59;5018182;28;20345;-69
2022/11/02 06:34:46;;;;;;;8.68;1.15;;;;;;;-142.75;100.00;77432.56;5024394;28;20023;-69
2022/11/02 06:37:12;;;;;;;8.20;1.10;;;;;;;-142.75;100.00;77432.56;5025874;28;20334;-69
2022/11/02 06:39:37;;;;;;;10.38;1.48;;;;;;;-142.75;100.00;77436.50;5023385;28;20315;-67
2022/11/02 06:42:03;;;;;;;4.82;1.40;;;;;;;-142.75;100.00;77434.53;5025498;28;20491;-67
2022/11/02 06:44:28;;;;;;;4.80;0.50;;;;;;;-142.75;100.00;77432.56;5024238;28;20328;-67
2022/11/02 06:46:54;;;;;;;12.13;1.08;;;;;;;-142.75;100.00;77436.50;5023180;28;20195;-69
2022/11/02 06:49:19;;;;;;;5.32;0.98;;;;;;;-142.75;100.00;77436.50;5023717;28;20384;-69
2022/11/02 06:51:45;;;;;;;7.15;1.15;;;;;;;-142.75;100.00;77440.44;5025702;28;20186;-68
2022/11/02 06:54:10;;;;;;;9.18;1.00;;;;;;;-142.75;100.00;77436.50;5023677;28;20347;-69
2022/11/02 06:56:35;;;;;;;10.88;1.17;;;;;;;-142.75;100.00;77434.53;5024913;28;20445;-69
2022/11/02 06:59:01;;;;;;;9.60;1.08;;;;;;;-142.75;100.00;77436.50;5004787;28;20361;-69
2022/11/02 07:01:26;;;;;;;8.10;1.15;;;;;;;-142.75;100.00;77428.63;5025372;28;20181;-68
2022/11/02 07:03:52;;;;;;;11.30;1.65;;;;;;;-142.75;100.00;77442.41;5024955;28;20321;-69
2022/11/02 07:06:17;;;;;;;5.68;0.95;;;;;;;-142.75;100.00;77438.47;5025390;28;20380;-68
2022/11/02 07:08:43;;;;;;;11.88;1.00;;;;;;;-142.75;100.00;77426.66;5023723;28;20507;-69
2022/11/02 07:11:13;;;;;;;9.10;1.70;;;;;;;-142.75;100.00;77408.94;5025292;28;20322;-69
2022/11/02 07:13:39;;;;;;;22.00;2.58;;;;;;;-142.75;100.00;77405.00;5022845;28;20056;-69
2022/11/02 07:16:04;;;;;;;11.23;1.30;;;;;;;-142.75;100.00;77389.25;5022664;28;20270;-68
2022/11/02 07:18:30;;;;;;;11.45;1.40;;;;;;;-142.75;100.00;77381.38;5022895;28;20182;-68
2022/11/02 07:20:58;;;;;;;19.02;1.85;;;;;;;-142.75;100.00;77361.69;5022580;28;20595;-69
2022/11/02 07:23:23;;;;;;;12.68;1.13;;;;;;;-142.75;100.00;77336.09;5017772;28;20015;-68
2022/11/02 07:25:49;;;;;;;7.72;1.25;;;;;;;-142.75;100.00;77334.13;5024634;28;20321;-68
2022/11/02 07:28:14;;;;;;;7.72;1.27;;;;;;;-142.75;100.00;77316.41;5005745;28;20365;-69
2022/11/02 07:30:40;;;;;;;11.95;1.27;;;;;;;-142.75;100.00;77290.81;5021911;28;20468;-69
2022/11/02 07:33:05;;;;;;;12.40;1.23;;;;;;;-142.75;100.00;77275.06;5009876;28;20427;-69
2022/11/02 07:35:33;;;;;;;4.25;1.20;;;;;;;-142.75;100.00;77261.28;4984602;28;20420;-68
2022/11/02 07:38:04;;;;;;;9.55;0.95;;;;;;;-142.75;100.00;77253.41;4990358;28;20025;-69
2022/11/02 07:40:30;;;;;;;13.20;1.40;;;;;;;-142.75;100.00;77255.38;5013531;28;20032;-67
2022/11/02 07:42:57;;;;;;;15.30;1.30;;;;;;;-142.75;100.00;77241.59;5017064;28;20028;-69
2022/11/02 07:45:23;;;;;;;9.57;1.08;;;;;;;-142.75;100.00;77247.50;5017495;28;20020;-69
2022/11/02 07:47:49;;;;;;;;;;;;;;;-142.75;100.00;77265.22;5004376;28;20029;-69
2022/11/02 07:50:17;;;;;;;4.65;1.05;;;;;;;-142.75;100.00;77279.00;4986307;28;20192;-69
2022/11/02 07:52:48;;;;;;;7.25;1.27;;;;;;;-142.75;100.00;77259.31;5013360;28;20036;-68
2022/11/02 07:55:15;;;;;;;9.57;1.42;;;;;;;-142.75;100.00;77235.69;5020528;28;20024;-68
2022/11/02 07:57:42;;;;;;;9.32;1.20;;;;;;;-142.75;100.00;77219.94;5004110;28;20113;-70
2022/11/02 08:00:09;;;;;;;8.02;0.88;;;;;;;-142.75;100.00;77223.88;4993716;28;20659;-69
2022/11/02 08:02:35;;;;;;;8.38;1.30;;;;;;;-142.75;100.00;77204.19;4995370;28;20042;-69
2022/11/02 08:05:00;;;;;;;5.88;0.80;;;;;;;-142.75;100.00;77190.41;4996896;28;20232;-67
2022/11/02 08:07:26;;;;;;;;;;;;;;;-142.75;100.00;77180.56;4991737;28;20020;-67
2022/11/02 08:09:51;;;;;;;9.32;1.30;;;;;;;-142.75;100.00;77174.66;5006857;28;19908;-67
2022/11/02 08:12:17;;;;;;;;;;;;;;;-142.75;100.00;77178.59;4987097;28;20217;-66
2022/11/02 08:14:42;;;;;;;13.10;1.20;;;;;;;-142.75;100.00;77162.84;4989357;28;20271;-66
2022/11/02 08:17:08;;;;;;;5.18;0.90;;;;;;;-142.75;100.00;77147.09;5003398;28;20187;-67
2022/11/02 08:19:33;;;;;;;;;;;;;;;-142.75;100.00;77129.38;5018497;28;20186;-69
2022/11/02 08:21:58;;;;;;;8.38;1.40;;;;;;;-142.75;100.00;77097.88;5019355;28;20252;-68
2022/11/02 08:24:24;;;;;;;8.43;1.45;;;;;;;-142.75;100.00;77076.22;5016922;28;20351;-69
2022/11/02 08:26:51;;;;;;;5.55;0.90;;;;;;;-142.75;100.00;77036.84;4982556;28;20868;-68
2022/11/02 08:29:16;;;;;;;;;;;;;;;-142.75;100.00;77009.28;4997534;28;20059;-67
2022/11/02 08:31:41;;;;;;;9.65;1.50;;;;;;;-142.75;100.00;76995.50;5021953;28;19920;-66
2022/11/02 08:34:07;;;;;;;;;;;;;;;-142.75;100.00;76995.50;5022355;28;20423;-66
2022/11/02 08:36:35;;;;;;;10.73;1.10;;;;;;;-142.75;100.00;76946.28;5017467;28;20356;-67
2022/11/02 08:39:00;;;;;;;4.50;0.70;;;;;;;-142.75;100.00;76940.38;5020391;28;20020;-66
2022/11/02 08:41:26;;;;;;;;;;;;;;;-142.75;100.00;76950.22;5001903;28;20379;-66
2022/11/02 08:43:51;;;;;;;5.75;1.23;;;;;;;-142.75;100.00;76954.16;5021712;28;20210;-66
2022/11/02 08:46:17;;;;;;;;;;;;;;;-142.75;100.00;76938.41;5022009;28;20460;-65
2022/11/02 08:48:42;;;;;;;6.25;0.98;;;;;;;-142.75;100.00;76901.00;5021552;28;20245;-66
2022/11/02 08:51:08;;;;;;;10.43;1.25;;;;;;;-142.75;100.00;76924.63;5022438;28;20463;-66
2022/11/02 08:53:34;;;;;;;;;;;;;;;-142.75;100.00;76904.94;5022405;28;20185;-64
2022/11/02 08:55:59;;;;;;;7.35;1.30;;;;;;;-142.75;100.00;76879.34;5020214;28;20136;-65
2022/11/02 08:58:25;;;;;;;6.70;1.13;;;;;;;-142.75;100.00;76871.47;5021068;28;20302;-66
2022/11/02 09:00:54;;;;;;;5.55;0.80;;;;;;;-142.75;100.00;76826.19;5021574;28;20434;-66
2022/11/02 09:03:23;;;;;;;4.28;1.13;;;;;;;-142.75;100.00;76834.06;5021562;28;20028;-64
2022/11/02 09:05:49;;;;;;;4.85;1.10;;;;;;;-142.75;100.00;76839.97;5020984;28;20024;-65
2022/11/02 09:08:18;;;;;;;9.27;1.58;;;;;;;-142.75;100.00;76818.31;5022942;28;20055;-66
2022/11/02 09:10:45;;;;;;;6.35;1.15;;;;;;;-142.75;100.00;76904.94;5021844;28;20146;-66
2022/11/02 09:13:13;;;;;;;5.93;0.95;;;;;;;-142.75;100.00;76997.47;5021235;28;20151;-67
2022/11/02 09:15:39;;;;;;;4.55;0.80;;;;;;;-142.75;100.00;77032.91;5023287;28;20031;-66
2022/11/02 09:18:06;;;;;;;6.07;1.33;;;;;;;-142.75;100.00;77090.00;5023235;28;20235;-66
2022/11/02 09:20:33;;;;;;;8.23;1.23;;;;;;;-142.75;100.00;77119.53;5025153;28;20020;-66
2022/11/02 09:22:59;;;;;;;9.48;1.20;;;;;;;-142.75;100.00;77099.84;5006743;28;20106;-66
2022/11/02 09:25:24;;;;;;;;;;;;;;;-142.75;100.00;77074.25;5015285;28;20113;-65
2022/11/02 09:27:54;;;;;;;13.32;1.23;;;;;;;-142.75;100.00;77046.69;5000406;28;20286;-69
2022/11/02 09:30:20;;;;;;;5.65;1.05;;;;;;;-142.75;100.00;77084.09;4987946;28;20031;-70
2022/11/02 09:33:03;;;;;;;10.68;1.55;;;;;;;-142.75;100.00;77078.19;4994406;28;20237;-67
2022/11/02 09:35:31;;;;;;;4.97;0.98;;;;;;;-142.75;100.00;77040.78;5008028;28;20032;-65
2022/11/02 09:37:57;;;;;;;6.25;0.88;;;;;;;-142.75;100.00;77007.31;5024814;28;20028;-66
2022/11/02 09:40:24;;;;;;;;;;;;;;;-142.75;100.00;76964.00;5027721;28;20317;-66
2022/11/02 09:43:00;;;;;;;4.68;1.10;;;;;;;-142.75;100.00;76969.91;5025422;28;19915;-64
2022/11/02 09:45:26;;;;;;;9.60;1.55;;;;;;;-142.75;100.00;77003.38;5024731;28;20137;-65
2022/11/02 09:48:12;;;;;;;6.63;1.10;;;;;;;-142.75;100.00;76956.13;5024443;28;20104;-64
2022/11/02 09:51:01;;;;;;;8.23;1.00;;;;;;;-142.75;100.00;76930.53;5026419;28;20209;-65
2022/11/02 09:53:36;;;;;;;10.93;1.42;;;;;;;-142.75;100.00;76887.22;4988764;28;20044;-63
2022/11/02 09:56:03;;;;;;;7.43;1.13;;;;;;;-142.75;100.00;76859.66;5001426;28;20152;-63
2022/11/02 09:58:35;;;;;;;10.25;1.13;;;;;;;-142.75;100.00;76826.19;5026061;28;20028;-63
2022/11/02 10:01:29;;;;;;;8.13;1.60;;;;;;;-142.75;100.00;76794.69;5026695;28;20020;-63
2022/11/02 10:04:06;;;;;;;7.55;1.38;;;;;;;-142.75;100.00;76759.28;5011406;28;20143;-63
2022/11/02 10:06:34;;;;;;;6.43;0.95;;;;;;;-142.75;100.00;76727.78;5026349;28;20121;-63
2022/11/02 10:09:14;;;;;;;6.75;1.10;;;;;;;-142.75;100.00;76731.72;5026033;28;20058;-65
2022/11/02 10:12:19;;;;;;;6.28;1.45;;;;;;;-142.75;100.00;76759.28;5024600;28;20059;-65
2022/11/02 10:14:55;;;;;;;10.20;1.30;;;;;;;-142.75;100.00;76802.56;5013210;28;20059;-65
2022/11/02 10:17:24;;;;;;;;;;;;;;;-142.75;100.00;76836.03;5026561;28;20541;-64
2022/11/02 10:20:02;;;;;;;7.75;1.23;;;;;;;-142.75;100.00;76818.31;5024103;28;19919;-66
2022/11/02 10:22:35;;;;;;;13.52;1.20;;;;;;;-142.75;100.00;76861.63;5016556;28;20024;-62
2022/11/02 10:25:05;;;;;;;10.35;0.93;;;;;;;-142.75;100.00;76763.22;4967678;28;20024;-63
2022/11/02 10:27:37;;;;;;;7.38;1.23;;;;;;;-142.75;100.00;76773.06;4990404;28;20059;-63
2022/11/02 10:30:14;;;;;;;10.98;2.20;;;;;;;-142.75;100.00;76780.94;5004993;28;20907;-62
2022/11/02 10:32:44;;;;;;;17.77;1.58;;;;;;;-142.75;100.00;76715.97;5023700;28;20134;-62
2022/11/02 10:35:16;;;;;;;5.63;1.13;;;;;;;-142.75;100.00;76731.72;4990363;28;20145;-62
2022/11/02 10:37:54;;;;;;;7.97;1.58;;;;;;;-142.75;100.00;76759.28;4991934;28;20043;-62
2022/11/02 10:40:48;;;;;;;11.93;1.65;;;;;;;-142.75;100.00;76678.56;5005092;28;20529;-62
2022/11/02 10:43:27;;;;;;;4.82;0.80;;;;;;;-142.75;100.00;76749.44;5005506;28;20833;-63
2022/11/02 10:46:11;;;;;;;16.23;2.00;;;;;;;-142.75;100.00;76723.84;5005179;28;20950;-62
2022/11/02 10:48:49;;;;;;;7.05;1.48;;;;;;;-142.75;100.00;76698.25;5004809;28;20564;-63
2022/11/02 10:51:16;;;;;;;9.27;1.55;;;;;;;-142.75;100.00;76721.88;5004992;28;20024;-67
2022/11/02 10:53:45;;;;;;;7.18;1.40;;;;;;;-142.75;100.00;76670.69;5024739;28;20024;-65
2022/11/02 10:56:18;;;;;;;8.18;1.25;;;;;;;-142.75;98.89;76615.56;4988662;28;20020;-65
2022/11/02 10:59:33;;;;;;;8.52;1.45;;;;;;;-142.75;94.09;76660.84;4986072;28;20028;-64
2022/11/02 11:01:58;;;;;;;11.02;1.20;;;;;;;-142.75;93.97;76676.59;4996375;28;20071;-65
2022/11/02 11:04:29;;;;;;;10.20;1.50;;;;;;;-142.75;92.45;76613.59;5004704;28;20459;-67
2022/11/02 11:06:55;;;;;;;7.15;1.33;;;;;;;-142.75;94.88;76574.22;5025402;28;20024;-67
2022/11/02 11:09:29;;;;;;;11.15;1.90;;;;;;;-142.75;91.67;76686.44;5023507;28;20060;-67
2022/11/02 11:12:03;;;;;;;8.05;1.42;;;;;;;-142.75;94.39;76712.03;5023042;28;20077;-68
2022/11/02 11:14:51;;;;;;;8.57;1.75;;;;;;;-142.75;97.71;76700.22;5003043;28;20036;-70
2022/11/02 11:17:20;;;;;;;7.60;1.23;;;;;;;-142.75;92.64;76660.84;5024713;28;20039;-68
2022/11/02 11:19:54;;;;;;;6.68;1.35;;;;;;;-142.75;98.77;76802.56;5025652;28;20028;-68
2022/11/02 11:22:24;;;;;;;9.82;1.45;;;;;;;-142.75;95.29;76753.38;5023066;28;20074;-69
2022/11/02 11:24:50;;;;;;;9.02;1.45;;;;;;;-142.75;95.31;76747.47;5024955;28;20192;-68
2022/11/02 11:27:17;;;;;;;9.70;1.67;;;;;;;-142.75;100.00;76743.53;5004342;28;20459;-67
2022/11/02 11:29:57;;;;;;;11.70;1.75;;;;;;;-142.75;97.60;76668.72;5023054;28;20071;-68
2022/11/02 11:32:28;;;;;;;8.88;1.20;;;;;;;-142.75;95.28;76593.91;5024711;28;20116;-66
2022/11/02 11:35:01;;;;;;;8.40;1.25;;;;;;;-142.75;92.25;76641.16;5022603;28;20032;-68
2022/11/02 11:37:27;;;;;;;5.80;0.82;;;;;;;-142.75;93.14;76619.50;5022581;28;20092;-67